Αρχική σελίδα
METAR-TAF:

METAR-TAF

Αεροδρόμια :

Albion Municipal Airport

Albion, Νεμπράσκα, Ηνωμένες Πολιτείες Αμερικής

γεωγραφικό πλάτος: 41-43-42N, γεωγραφικό μήκος: 098-03-20W, υψόμετρο: 551 μ

Παρών καιρός

Η αναφορά έγινε 14 λεπτά πριν, στις 01:15 UTC
Ήπιος άνεμος
Θερμοκρασία 2°C
Υγρασία 87%
Πίεση 1009 hPa
Ορατότητα: 16.1 χλμ
Καθαρός ουρανός

METAR: KBVN 190115Z AUTO 00000KT 10SM CLR 02/00 A2981 RMK AO2 T00151002

Χρόνος: 19:29 (01:29 UTC)


TAF: λείπει

Μετεωρολογικές αναφορές και προγνώσεις για περισσότερα από 4000 αεροδρόμια (δελτία METAR και TAF).

Οι διαθέσιμοι σταθμοί απεικονίζονται στο χάρτη με κίτρινες και κόκκινες κουκκίδες.

Μετακινήστε το ποντίκι πάνω από τις κουκκίδες για να δείτε το όνομα του σταθμού.

Στη συνέχεια, κάντε κλικ για να δείτε τις μετεωρολογικές αναφορές και τις προγνώσεις καιρού.

Για να αλλάξετε το χάρτη: κάντε κλικ στα πράσινα κουμπιά με τον μαύρο σταυρό για να ζουμάρετε, στο πράσινο κουμπί με την παύλα για να αφαιρέσετε το ζουμ ή στα πράσινα βέλη για να αντιπαραβάλλετε χάρτες.


METAR-TAF: